TimeCST,TemperatureF,Dew PointF,Humidity,Sea Level PressureIn,VisibilityMPH,Wind Direction,Wind SpeedMPH,Gust SpeedMPH,PrecipitationIn,Events,Conditions,WindDirDegrees,DateUTC
12:52 AM,62.1,53.1,72,30.04,10.0,South,17.3,-,N/A,,Clear,180,2013-03-04 06:52:00
1:52 AM,62.1,55.0,78,30.02,10.0,South,19.6,-,N/A,,Clear,180,2013-03-04 07:52:00
2:52 AM,62.1,55.0,78,30.00,10.0,South,18.4,-,N/A,,Clear,180,2013-03-04 08:52:00
3:52 AM,63.0,55.0,75,29.99,10.0,South,16.1,-,N/A,,Clear,180,2013-03-04 09:52:00
4:52 AM,62.6,55.4,77,29.97,10.0,South,19.6,-,N/A,,Clear,180,2013-03-04 10:52:00
5:52 AM,64.0,55.9,75,29.96,10.0,South,20.7,-,N/A,,Clear,180,2013-03-04 11:52:00
6:52 AM,64.0,57.0,78,29.95,10.0,South,21.9,27.6,N/A,,Clear,180,2013-03-04 12:52:00
7:52 AM,66.0,59.0,78,29.96,10.0,South,17.3,-,N/A,,Clear,190,2013-03-04 13:52:00
8:52 AM,68.0,60.1,76,29.96,10.0,South,18.4,-,N/A,,Clear,190,2013-03-04 14:52:00
9:52 AM,70.0,61.0,73,29.96,10.0,South,17.3,-,N/A,,Clear,190,2013-03-04 15:52:00
10:52 AM,71.1,61.0,70,29.95,10.0,South,19.6,26.5,N/A,,Mostly Cloudy,190,2013-03-04 16:52:00
11:52 AM,72.0,61.0,68,29.95,10.0,SSW,17.3,25.3,N/A,,Overcast,200,2013-03-04 17:52:00
12:52 PM,72.0,62.1,71,29.92,10.0,SSW,18.4,-,N/A,,Overcast,200,2013-03-04 18:52:00
1:52 PM,73.0,62.1,68,29.89,10.0,SSW,18.4,25.3,N/A,,Overcast,200,2013-03-04 19:52:00
2:26 PM,73.4,62.6,69,29.88,10.0,SSW,16.1,25.3,N/A,,Overcast,200,2013-03-04 20:26:00
2:52 PM,73.0,63.0,71,29.88,10.0,South,17.3,21.9,N/A,,Overcast,190,2013-03-04 20:52:00
3:09 PM,71.6,62.6,73,29.87,10.0,SSW,18.4,-,N/A,,Overcast,200,2013-03-04 21:09:00
3:52 PM,72.0,62.1,71,29.87,10.0,South,15.0,-,N/A,,Overcast,190,2013-03-04 21:52:00
4:52 PM,70.0,62.1,76,29.84,10.0,South,15.0,-,N/A,,Overcast,180,2013-03-04 22:52:00
5:52 PM,66.9,62.1,84,29.84,10.0,South,15.0,-,N/A,,Overcast,180,2013-03-04 23:52:00
6:52 PM,66.9,62.1,84,29.85,10.0,South,12.7,-,N/A,,Overcast,180,2013-03-05 00:52:00
7:52 PM,66.9,63.0,87,29.85,10.0,South,17.3,-,N/A,,Overcast,180,2013-03-05 01:52:00
8:52 PM,66.9,63.0,87,29.85,10.0,South,17.3,-,N/A,,Overcast,190,2013-03-05 02:52:00
9:52 PM,66.9,62.1,84,29.86,10.0,South,16.1,23.0,N/A,,Overcast,190,2013-03-05 03:52:00
10:52 PM,66.9,62.1,84,29.85,10.0,South,19.6,26.5,N/A,,Mostly Cloudy,190,2013-03-05 04:52:00
11:52 PM,66.9,62.1,84,29.86,10.0,SSW,17.3,-,N/A,,Overcast,200,2013-03-05 05:52:00